Beavercreek, Oregon
Current Conditions -  °F | °C
As of 12:53 AM on Thursday 27 Nov 2014 (Local Time) from KUAO Reporting Station
Overcast Overcast  
Wind Chill: 58°   Ceiling: 8000
Heat Index: 58°   Visibility: 10mi
Dew Point: 48°   Wind: 7mph
Humidity: 70%   Direction: 210°SSW
Pressure: 29.99"   Gusts: NA
Location:  45.25°N, 122.48°W
Report Text: KUAO 270853Z AUTO 21006KT 10SM OVC080 14/09 A2999 RMK AO2 SLP155 T01440089 58002
Loading
Personal Weather Stations






























Interactive Weather Map New forecast layout! Learn more

10-Day Weather Forecast

Advertisements
Track Severe Weather on mobile